Aérodrome :
LOGIN :

S'inscrire | Disclaimer

   EN    FR    IT 

 










Légende :    VFR   VFR Marginal   IFR   IFR Intensif   IFR Très Intensif
Visi : 
Plafond : 
>= 8 km
>= 3000ft
5 à 8 km
1000 à 3000 ft
1500m à 5 km
500 à 1000 ft
800 à 1500m
200 à 500 ft
< 800m
< 200 ft
Symboles :   Orages  Brouillard  Fortes neiges  Fortes précipitations  Vent > 20 kt
SIGMETs :   Divers  Orages  Givrage  Turbulence  Onde Orograph.  Cendres Volcan.






- Altitude de l'aérodrome : 400 ft
- Code IATA : BNX


LQBK - Banja Luka

DERNIER METAR :
  • 191900Z 28002KT 7000 NSC M01/M02 Q1035 NOSIG

METARs EXPIRÉS :
  • 191830Z 24002KT 7000 FEW027 M01/M02 Q1035 NOSIG
  • 191800Z 33002KT 5000 BR FEW027 00/M01 Q1034 NOSIG
  • 191730Z 31002KT 6000 FEW027 01/M00 Q1034 NOSIG
  • 191700Z 30003KT 7000 FEW013 SCT027 01/00 Q1033 NOSIG
  • 191630Z 31003KT 7000 BKN010 OVC023 01/01 Q1033 NOSIG

TAF TAF LQBK
Valide du 19 à 18h jusqu'au 20 à 18h UTC


191700Z 1918/2018 30004KT 7000 SCT010 BKN020 TX02/2013Z TNM03/2006Z
TEMPO 1921/2011 2000 BR BKN005
PROB30
TEMPO 2002/2009 0300 FZFG OVC002



MET'MAP, la Météo Aéronautique d'un coup d'oeil ! - Copyright ORBIFLY Décembre 2007 - Disclaimer

ORBIFLY MET'MAP TEAM :

Programmation & Développement : Alexandra Zaïnal
Sur une idée originale de : Baudouin d'Aumeries
Assistance à la programmation : Marc-Olivier Méhu
Soutien technique & logistique : Manuel Goepfert

Contact : metmap@orbifly.com




SOURCES & CREDITS :

   NOAA